Katowice International Airport Katowice PL
ICAO: EPKT
IATA: KTW
Category: Large
Scheduled Services: Yes

Elevation: 995 ft
TransAlt. 6500 ft.

Airport Communications:
APP:121.075
HANDLING:131.45
TWR:129.25

EPKT Zoom In..

If you have problems with the map follow the link
https://www.worldairports.se/pages/airport.php?
ICAO=EPKT

Runways:

(A) RW 09 length 9186 ft width 197 ft
---- / hdg 86

(B) RW 27 length 9186 ft width 197 ft
ILS 109.90 / hdg 266

Location; EPKT
Day. 14 / Time. 08.00 Zulu
* QNH: 1011
* Temperature: 03° c. 37.4°f.
* Wind from: EPK° Speed T kn.
Dewpoint: 02° c.
Visibility: 10 km or more.
Clouds: Few 500 ft.
Clouds: Scattered 700 ft.
Clouds: Broken 1300 ft.

EPKT 140800Z 11006KT 070V140 9999 FEW005 SCT007 BKN013 03/02 Q1011


Wind From EPK°
Speed T kn.

 
 
jpsmedia worldairports.se 2019   terms of use